Time;durP1;ratioP1;P1;durP2;ratioP2;P2;SDS_P1;SDS_P2;PMS_P1;PMS_P2;Temp;Humidity;BMP_temperature;BMP_pressure;BME280_temperature;BME280_humidity;BME280_pressure;Samples;Min_cycle;Max_cycle;Signal;HPM_P1;HPM_P2
2021/06/14 00:01:15;;;;;;;2.53;2.33;;;;;;;22.00;41.89;94371.56;827516;71;32759;-75
2021/06/14 00:16:09;;;;;;;2.47;2.37;;;;;;;22.07;41.89;94364.77;834056;71;29763;-76
2021/06/14 00:31:19;;;;;;;2.40;2.20;;;;;;;22.00;41.85;94356.11;834021;71;32792;-78
2021/06/14 00:46:10;;;;;;;3.00;2.80;;;;;;;21.95;42.23;94353.17;828540;71;30349;-76
2021/06/14 01:01:15;;;;;;;4.00;2.70;;;;;;;21.96;42.48;94333.34;834102;71;32657;-76
2021/06/14 01:16:29;;;;;;;2.87;2.67;;;;;;;21.92;42.66;94330.44;827133;71;30338;-79
2021/06/14 01:31:16;;;;;;;3.43;3.13;;;;;;;21.82;42.92;94313.14;833954;71;32648;-78
2021/06/14 01:46:11;;;;;;;3.37;3.07;;;;;;;21.85;43.16;94318.31;834050;71;29769;-77
2021/06/14 02:01:09;;;;;;;2.90;2.70;;;;;;;21.83;42.97;94329.94;828208;71;30332;-79
2021/06/14 02:16:31;;;;;;;3.03;2.73;;;;;;;21.76;43.02;94329.29;820271;71;32711;-78
2021/06/14 02:31:15;;;;;;;3.10;2.90;;;;;;;21.78;42.99;94329.13;827222;71;33164;-78
2021/06/14 02:46:15;;;;;;;4.60;3.50;;;;;;;21.78;43.08;94330.45;827465;71;32717;-74
2021/06/14 03:16:08;;;;;;;3.53;2.93;;;;;;;21.63;43.69;94338.08;828803;71;29816;-77
2021/06/14 03:31:12;;;;;;;3.70;3.40;;;;;;;21.95;42.95;94346.48;834119;71;30279;-75
2021/06/14 03:46:14;;;;;;;6.17;3.22;;;;;;;20.79;47.67;94337.22;827549;71;33450;-77
2021/06/14 04:01:09;;;;;;;291.90;204.65;;;;;;;21.43;48.05;94329.98;828150;71;30997;-78
2021/06/14 04:16:08;;;;;;;16.35;12.80;;;;;;;22.10;46.09;94329.28;828446;71;29788;-77
2021/06/14 04:31:08;;;;;;;5.27;4.77;;;;;;;22.74;43.28;94338.55;834688;71;29818;-77
2021/06/14 04:46:16;;;;;;;4.33;3.93;;;;;;;23.31;41.20;94332.30;835238;71;32650;-78
2021/06/14 05:01:10;;;;;;;3.80;3.23;;;;;;;23.49;38.92;94323.63;834405;71;30341;-77
2021/06/14 05:16:15;;;;;;;3.67;3.13;;;;;;;24.07;38.13;94352.80;807578;71;33032;-75
2021/06/14 05:31:09;;;;;;;3.00;2.90;;;;;;;24.64;36.82;94341.52;825982;71;29733;-75
2021/06/14 05:46:21;;;;;;;3.77;3.40;;;;;;;25.27;35.77;94333.28;834325;71;33341;-86
2021/06/14 06:16:18;;;;;;;3.63;3.40;;;;;;;26.11;34.23;94316.54;824078;71;32656;-82
2021/06/14 06:31:15;;;;;;;3.00;2.70;;;;;;;26.62;32.59;94314.34;827612;71;32709;-84
2021/06/14 06:46:09;;;;;;;2.87;2.70;;;;;;;;;;834299;71;29787;-86
2021/06/14 07:01:10;;;;;;;3.10;2.90;;;;;;;25.24;32.98;94308.53;828426;71;30286;-87
2021/06/14 07:32:00;;;;;;;3.00;2.80;;;;;;;25.85;31.51;94290.13;805211;72;32835;-90
2021/06/14 07:46:09;;;;;;;2.50;2.40;;;;;;;26.06;29.94;94271.83;826933;70;30837;-88
2021/06/14 08:01:16;;;;;;;3.07;2.60;;;;;;;25.01;31.03;94282.06;827893;71;33092;-83
2021/06/14 08:16:09;;;;;;;3.33;3.10;;;;;;;23.45;32.78;94293.38;828426;71;30248;-76
2021/06/14 08:31:10;;;;;;;4.30;3.90;;;;;;;21.98;35.32;94309.70;834220;71;31203;-78
2021/06/14 08:46:17;;;;;;;5.55;3.50;;;;;;;20.95;39.34;94316.52;828054;71;33653;-80
2021/06/14 09:16:16;;;;;;;4.10;3.72;;;;;;;21.26;40.33;94296.56;827663;71;33264;-78
2021/06/14 09:31:16;;;;;;;4.47;4.05;;;;;;;21.51;45.18;94312.39;830212;70;32075;-81
2021/06/14 09:46:25;;;;;;;4.00;3.70;;;;;;;20.03;53.97;94354.30;828878;71;30258;-75
2021/06/14 10:01:24;;;;;;;6.12;4.30;;;;;;;18.97;58.24;94335.88;834832;71;33116;-75
2021/06/14 10:16:16;;;;;;;5.08;4.25;;;;;;;18.35;61.31;94352.77;828867;71;32685;-76
2021/06/14 10:46:12;;;;;;;6.97;5.50;;;;;;;17.59;67.23;94319.95;827982;71;30832;-77
2021/06/14 11:01:16;;;;;;;5.08;4.53;;;;;;;17.86;64.62;94303.84;833932;71;30255;-77
2021/06/14 11:16:41;;;;;;;4.42;4.03;;;;;;;18.27;59.66;94291.80;826714;71;32708;-76
2021/06/14 11:31:25;;;;;;;4.83;4.42;;;;;;;18.69;59.65;94278.78;828113;71;29732;-77
2021/06/14 11:46:24;;;;;;;5.12;4.72;;;;;;;19.40;58.51;94274.31;828081;71;30799;-76
2021/06/14 12:01:15;;;;;;;4.75;4.35;;;;;;;19.56;55.61;94256.93;834086;71;33182;-76
2021/06/14 12:16:15;;;;;;;4.72;4.33;;;;;;;20.18;52.01;94236.98;834441;71;32680;-78
2021/06/14 12:31:12;;;;;;;6.42;3.75;;;;;;;20.65;49.42;94218.33;828269;71;30335;-76
2021/06/14 12:46:16;;;;;;;3.80;3.50;;;;;;;21.39;47.31;94202.56;834101;71;32761;-77
2021/06/14 13:01:21;;;;;;;4.15;3.60;;;;;;;21.74;45.37;94165.38;828497;71;32705;-78
2021/06/14 13:16:15;;;;;;;4.10;3.80;;;;;;;22.38;43.21;94143.81;829409;71;30289;-75
2021/06/14 13:31:16;;;;;;;2.72;2.47;;;;;;;21.29;41.61;94175.72;834653;71;31372;-79
2021/06/14 13:46:09;;;;;;;3.33;3.02;;;;;;;18.35;54.78;94200.55;828122;71;30274;-77
2021/06/14 14:01:35;;;;;;;3.58;3.27;;;;;;;16.54;61.88;94214.59;835337;71;32740;-76
2021/06/14 14:16:15;;;;;;;3.80;3.50;;;;;;;15.46;66.29;94204.47;827369;71;32667;-75
2021/06/14 14:31:10;;;;;;;4.90;3.80;;;;;;;15.55;68.58;94209.14;828027;71;30278;-77
2021/06/14 14:46:09;;;;;;;4.17;3.87;;;;;;;15.46;70.03;94196.54;828261;71;30237;-75
2021/06/14 15:16:09;;;;;;;5.10;4.70;;;;;;;15.68;67.01;94168.95;828489;71;30370;-78
2021/06/14 15:31:17;;;;;;;5.10;4.70;;;;;;;15.81;65.51;94156.53;827813;71;32746;-76
2021/06/14 15:46:10;;;;;;;7.10;4.40;;;;;;;15.91;66.09;94178.59;813820;71;30320;-78
2021/06/14 16:01:10;;;;;;;5.28;4.87;;;;;;;15.95;66.06;94182.69;828201;71;30710;-79
2021/06/14 16:16:16;;;;;;;4.60;4.20;;;;;;;15.93;65.89;94189.62;823354;71;33464;-79
2021/06/14 16:31:12;;;;;;;6.50;5.35;;;;;;;16.00;64.45;94197.04;834275;71;31460;-77
2021/06/14 16:46:14;;;;;;;5.30;4.75;;;;;;;15.89;63.35;94199.31;834280;71;32740;-78
2021/06/14 17:01:09;;;;;;;5.40;5.00;;;;;;;15.89;64.31;94219.16;828282;71;30763;-77
2021/06/14 17:16:13;;;;;;;6.72;6.12;;;;;;;16.14;66.01;94219.20;829439;71;31463;-78
2021/06/14 17:31:16;;;;;;;5.60;4.75;;;;;;;16.39;64.89;94250.46;828426;71;32667;-78
2021/06/14 17:46:13;;;;;;;5.50;5.00;;;;;;;16.19;65.92;94307.13;833904;71;31992;-77
2021/06/14 18:01:09;;;;;;;5.75;5.12;;;;;;;15.82;69.36;94357.84;834847;71;29739;-77
2021/06/14 18:16:16;;;;;;;4.97;4.50;;;;;;;15.55;74.58;94353.80;827516;71;33236;-76
2021/06/14 18:31:08;;;;;;;4.92;4.50;;;;;;;15.07;75.39;94344.48;829390;71;29693;-77
2021/06/14 18:46:10;;;;;;;5.30;4.87;;;;;;;14.77;75.71;94352.38;828014;71;30295;-77
2021/06/14 19:01:15;;;;;;;5.55;4.70;;;;;;;14.72;74.47;94379.75;827865;71;30801;-77
2021/06/14 19:16:15;;;;;;;6.03;5.42;;;;;;;14.71;75.36;94383.47;825851;71;32785;-79
2021/06/14 19:31:15;;;;;;;5.00;4.60;;;;;;;14.67;76.18;94410.28;834126;71;33026;-78
2021/06/14 19:46:11;;;;;;;6.95;4.20;;;;;;;14.60;74.16;94431.13;826119;71;31487;-79
2021/06/14 20:01:15;;;;;;;4.20;3.90;;;;;;;14.51;74.22;94454.09;828015;71;32897;-76
2021/06/14 20:16:09;;;;;;;5.53;4.40;;;;;;;14.41;75.45;94447.27;823482;71;30287;-77
2021/06/14 20:31:08;;;;;;;4.15;3.85;;;;;;;14.28;73.84;94423.15;828408;71;29637;-75
2021/06/14 20:46:11;;;;;;;4.17;3.87;;;;;;;14.14;73.47;94423.31;834559;71;31872;-78
2021/06/14 21:16:15;;;;;;;4.15;3.80;;;;;;;13.92;74.41;94423.69;828088;71;32736;-78
2021/06/14 21:31:46;;;;;;;4.80;4.40;;;;;;;13.88;75.17;94411.44;815742;72;30933;-77
2021/06/14 21:46:09;;;;;;;4.03;3.75;;;;;;;13.83;75.36;94387.32;834173;71;30273;-77
2021/06/14 22:01:08;;;;;;;4.03;3.72;;;;;;;13.86;75.21;94398.55;834046;71;29709;-79
2021/06/14 22:16:15;;;;;;;4.30;4.00;;;;;;;13.89;74.49;94399.78;835655;71;32736;-77
2021/06/14 22:31:10;;;;;;;4.47;4.00;;;;;;;13.78;74.32;94398.78;828155;71;30417;-77
2021/06/14 22:46:14;;;;;;;4.03;3.40;;;;;;;13.67;73.35;94402.05;833985;71;32058;-77
2021/06/14 23:01:08;;;;;;;4.03;3.72;;;;;;;13.55;73.61;94399.47;834035;71;29759;-76
2021/06/14 23:16:08;;;;;;;4.25;3.95;;;;;;;13.43;74.30;94400.06;828225;71;29692;-76
2021/06/14 23:31:09;;;;;;;4.67;4.28;;;;;;;13.40;75.28;94402.01;833997;71;30289;-77
2021/06/14 23:46:08;;;;;;;4.40;4.10;;;;;;;13.38;74.59;94388.88;828289;71;29737;-78
